Historique des mesures à Cassis (13260), France
Quotidien Résumé Avril 1, 2018 Unités:  Métrique    US   Métrique/US
« Précédent (Jour)
Suivant (Jour) »
Quotidien Hebdomadaire Mensuel Annuel Période au choix
  Maximum: Minimum: Moyenne:
Température: TemperatureC °C 8.7 °C 11.3 °C
Point de rosée: DewpointC °C 0.7 °C 2.2 °C
Humidité: Humidity % 37 % 51 %
Vitesse du vent: 0 km/h 3.4 km/h 23.5 km/h
Rafales: 0 km/h - -
Vent:- - WSW
Pression: PressurehPa hPa 1003.9 hPa -
Précipitations: 0.0 mm    
Historical Graphs
 
 
Mesures pour : Avril 1, 2018
Heure Temperature Point de rosée Pression Vent Vitesse du vent Rafales Humidité Pluie (par heure) Conditions
TemperatureC °C DewpointC °C PressurehPa hPa Calm     Humidity % HourlyPrecipMM mm SoftwareType W/m2
00:10 10.4 °C 0.9 °C 1003.9 hPa West 41.2 km/h 64.2 km/h 52 % 0.0 mm open2300-1.11 W/m2
01:10 9.9 °C 1.2 °C 1004.6 hPa NW 34.8 km/h 62 km/h 55 % 0.0 mm open2300-1.11 W/m2
02:10 9.5 °C 1.1 °C 1005.6 hPa NW 10.9 km/h 60.3 km/h 56 % 0.0 mm open2300-1.11 W/m2
03:10 9.3 °C 0.7 °C 1006.0 hPa NNE 22 km/h 24.8 km/h 55 % 0.0 mm open2300-1.11 W/m2
04:10 9.0 °C 1.2 °C 1006.3 hPa West 24.3 km/h 33.6 km/h 58 % 0.0 mm open2300-1.11 W/m2
05:10 8.8 °C 1.0 °C 1007.3 hPa West 11.6 km/h 37.5 km/h 58 % 0.0 mm open2300-1.11 W/m2
06:10 8.8 °C 1.2 °C 1008.0 hPa WNW 33.6 km/h 33.6 km/h 59 % 0.0 mm open2300-1.11 W/m2
07:10 8.7 °C 1.1 °C 1008.4 hPa NNE 17.9 km/h 46.3 km/h 59 % 0.0 mm open2300-1.11 W/m2
08:10 8.9 °C 1.3 °C 1009.0 hPa NW 20.3 km/h 22.5 km/h 59 % 0.0 mm open2300-1.11 W/m2
09:10 9.6 °C 1.5 °C 1009.4 hPa NNW 32.3 km/h 34.8 km/h 57 % 0.0 mm open2300-1.11 W/m2
11:12 12.1 °C 3.1 °C 1010.7 hPa WNW 16.3 km/h 26.7 km/h 54 % 0.0 mm open2300-1.11 W/m2
12:12 12.8 °C 2.0 °C 1010.7 hPa NW 25.4 km/h 41.7 km/h 48 % 0.0 mm open2300-1.11 W/m2
13:12 13.8 °C 2.3 °C 1010.7 hPa WNW 63.2 km/h 63.2 km/h 46 % 0.0 mm open2300-1.11 W/m2
14:12 14.0 °C 1.9 °C 1010.7 hPa West 28.5 km/h 41.2 km/h 44 % 0.0 mm open2300-1.11 W/m2
15:12 14.8 °C 1.7 °C 1010.0 hPa West 11.6 km/h 55.7 km/h 41 % 0.0 mm open2300-1.11 W/m2
16:11 15.6 °C 0.8 °C 1010.0 hPa WNW 52.8 km/h 52.8 km/h 37 % 0.0 mm open2300-1.11 W/m2
17:11 15.6 °C 2.3 °C 1009.4 hPa North 11.6 km/h 27.2 km/h 41 % 0.0 mm open2300-1.11 W/m2
18:11 14.9 °C 3.0 °C 1009.4 hPa WNW 36.5 km/h 36.5 km/h 45 % 0.0 mm open2300-1.11 W/m2
19:11 14.2 °C 4.2 °C 1009.7 hPa West 17.9 km/h 26.7 km/h 51 % 0.0 mm open2300-1.11 W/m2
20:11 13.0 °C 4.3 °C 1010.4 hPa West 15 km/h 16.9 km/h 56 % 0.0 mm open2300-1.11 W/m2
21:10 12.4 °C 5.1 °C 1010.7 hPa West 15 km/h 17.4 km/h 61 % 0.0 mm open2300-1.11 W/m2
22:10 12.3 °C 5.7 °C 1011.4 hPa WNW 3.4 km/h 3.4 km/h 64 % 0.0 mm open2300-1.11 W/m2
23:10 11.9 °C 6.2 °C 1011.1 hPa WNW 17.4 km/h 29 km/h 68 % 0.0 mm open2300-1.11 W/m2
Observations météo à CASSIS
WU-History script by Weather Underground - 1 mb